Terminal Aerodrome Forecast
Issued by NWS Sterling, VA

Current Version | Previous Version | Graphics & Text | Print | Product List | Glossary Off
Versions: 1 2 3 4 5 6 7 8 9 10 11 12 13 14 15 16 17 18 19 20 21

000
FTUS41 KLWX 260500
TAFIAD
TAF
KIAD 260538Z 2606/2712 19006KT P6SM FEW060
     FM260630 28012G24KT P6SM FEW060
     FM260900 30008KT P6SM SKC
     FM261400 30016G26KT P6SM SKC
     FM262300 29009KT P6SM SKC=

USA.gov is the U.S. government's official web portal to all federal, state and local government web resources and services.